Time;durP1;ratioP1;P1;durP2;ratioP2;P2;SDS_P1;SDS_P2;PMS_P1;PMS_P2;Temp;Humidity;BMP_temperature;BMP_pressure;BME280_temperature;BME280_humidity;BME280_pressure;Samples;Min_cycle;Max_cycle;Signal;HPM_P1;HPM_P2
2021/03/29 00:01:23;;;;;;;5.63;4.60;;;;;;;;;;5060481;28;20399;-63
2021/03/29 00:03:49;;;;;;;5.72;4.18;;;;;;;;;;5050725;28;20412;-64
2021/03/29 00:06:15;;;;;;;6.25;4.18;;;;;;;;;;5079296;28;20390;-64
2021/03/29 00:08:42;;;;;;;7.18;4.38;;;;;;;;;;5070918;28;20397;-64
2021/03/29 00:11:09;;;;;;;5.10;3.90;;;;;;;;;;5074327;28;20874;-63
2021/03/29 00:13:36;;;;;;;6.47;4.50;;;;;;;;;;5074458;28;20406;-64
2021/03/29 00:16:03;;;;;;;5.28;4.70;;;;;;;;;;5056317;28;20423;-64
2021/03/29 00:18:30;;;;;;;6.35;4.43;;;;;;;;;;5056267;28;20417;-64
2021/03/29 00:20:57;;;;;;;5.13;4.25;;;;;;;;;;5084608;28;20402;-64
2021/03/29 00:23:24;;;;;;;4.93;4.23;;;;;;;;;;5080351;28;20475;-64
2021/03/29 00:25:51;;;;;;;5.38;3.90;;;;;;;;;;5061597;28;20434;-64
2021/03/29 00:28:18;;;;;;;5.15;3.97;;;;;;;;;;5079857;28;20491;-64
2021/03/29 00:30:46;;;;;;;5.88;4.10;;;;;;;;;;5075422;28;20890;-63
2021/03/29 00:33:12;;;;;;;5.20;3.85;;;;;;;;;;5077771;28;20399;-64
2021/03/29 00:35:40;;;;;;;5.70;4.13;;;;;;;;;;5068119;28;20816;-66
2021/03/29 00:38:08;;;;;;;5.47;4.00;;;;;;;;;;5083805;28;20463;-64
2021/03/29 00:40:35;;;;;;;5.13;4.25;;;;;;;;;;5061004;28;20491;-63
2021/03/29 00:43:06;;;;;;;4.55;3.75;;;;;;;;;;5072659;28;20429;-64
2021/03/29 00:45:33;;;;;;;5.00;3.92;;;;;;;;;;5078736;28;20388;-64
2021/03/29 00:48:00;;;;;;;5.78;3.80;;;;;;;;;;5081656;28;20463;-64
2021/03/29 00:50:29;;;;;;;4.38;3.90;;;;;;;;;;5075454;28;20478;-63
2021/03/29 00:52:56;;;;;;;4.78;3.45;;;;;;;;;;5079650;28;20886;-64
2021/03/29 00:55:23;;;;;;;4.37;3.70;;;;;;;;;;5058760;28;20499;-64
2021/03/29 00:57:50;;;;;;;5.20;3.60;;;;;;;;;;5055608;28;20400;-63
2021/03/29 01:00:17;;;;;;;5.50;4.00;;;;;;;;;;5055621;28;20402;-64
2021/03/29 01:02:45;;;;;;;5.55;3.75;;;;;;;;;;5071147;22;20857;-69
2021/03/29 01:05:14;;;;;;;6.65;3.72;;;11.80;95.90;;;;;;5051162;28;20425;-69
2021/03/29 01:07:43;;;;;;;4.95;4.00;;;11.90;92.80;;;;;;5038710;28;20968;-68
2021/03/29 01:10:10;;;;;;;4.00;3.60;;;12.00;92.10;;;;;;5052632;28;20389;-68
2021/03/29 01:12:37;;;;;;;4.90;3.65;;;12.00;91.80;;;;;;5042131;28;20397;-69
2021/03/29 01:15:05;;;;;;;5.07;3.85;;;12.00;91.80;;;;;;5047902;28;20756;-69
2021/03/29 01:17:33;;;;;;;4.10;3.40;;;12.00;92.00;;;;;;5052923;28;20390;-69
2021/03/29 01:20:08;;;;;;;4.30;3.47;;;11.90;91.90;;;;;;5052668;28;20397;-69
2021/03/29 01:22:36;;;;;;;4.05;3.60;;;11.90;91.70;;;;;;5052307;28;20799;-69
2021/03/29 01:25:06;;;;;;;5.95;3.55;;;12.00;91.50;;;;;;5022131;28;20398;-69
2021/03/29 01:27:36;;;;;;;5.10;3.63;;;11.90;91.90;;;;;;5029439;28;20496;-69
2021/03/29 01:30:06;;;;;;;5.10;3.55;;;11.80;91.70;;;;;;5047951;28;20726;-69
2021/03/29 01:32:33;;;;;;;4.20;3.67;;;;;;;;;;5032380;28;20425;-69
2021/03/29 01:35:00;;;;;;;4.65;3.58;;;;;;;;;;5051701;28;20424;-69
2021/03/29 01:37:27;;;;;;;4.70;3.85;;;;;;;;;;5051055;28;20444;-69
2021/03/29 01:39:53;;;;;;;5.65;3.85;;;;;;;;;;5049892;28;20409;-69
2021/03/29 01:42:20;;;;;;;4.32;3.90;;;;;;;;;;5046704;28;20939;-69
2021/03/29 01:44:47;;;;;;;4.75;3.72;;;;;;;;;;5047512;28;20808;-69
2021/03/29 01:47:14;;;;;;;5.25;4.13;;;;;;;;;;5023631;28;20762;-69
2021/03/29 01:49:40;;;;;;;5.50;4.27;;;;;;;;;;5051249;28;20404;-69
2021/03/29 01:52:06;;;;;;;4.05;3.67;;;;;;;;;;5047343;28;20406;-69
2021/03/29 01:54:33;;;;;;;6.07;4.32;;;;;;;;;;5052148;28;20412;-69
2021/03/29 01:57:00;;;;;;;5.05;3.72;;;;;;;;;;5052457;28;20496;-69
2021/03/29 01:59:26;;;;;;;5.40;3.75;;;;;;;;;;5048540;28;20451;-69
2021/03/29 02:01:53;;;;;;;3.83;3.30;;;;;;;;;;5048311;28;20431;-69
2021/03/29 02:04:20;;;;;;;7.05;3.35;;;;;;;;;;5047009;28;20409;-69
2021/03/29 02:06:46;;;;;;;3.53;3.00;;;;;;;;;;5034263;28;20464;-69
2021/03/29 02:09:12;;;;;;;4.53;3.83;;;;;;;;;;5045962;28;20405;-69
2021/03/29 02:11:39;;;;;;;5.60;3.70;;;;;;;;;;5023235;28;20936;-69
2021/03/29 02:14:06;;;;;;;4.37;3.37;;;;;;;;;;5048028;28;20880;-69
2021/03/29 02:16:32;;;;;;;5.68;3.65;;;;;;;;;;5052246;28;20447;-69
2021/03/29 02:19:01;;;;;;;5.93;3.75;;;;;;;;;;5047930;28;20403;-69
2021/03/29 02:21:33;;;;;;;6.13;3.47;;;;;;;;;;5051750;28;20493;-69
2021/03/29 02:24:00;;;;;;;3.80;3.25;;;;;;;;;;5052044;28;20816;-68
2021/03/29 02:26:27;;;;;;;3.78;2.88;;;;;;;;;;5044927;28;20459;-67
2021/03/29 02:28:54;;;;;;;4.20;3.20;;;;;;;;;;5051989;28;20393;-67
2021/03/29 02:31:20;;;;;;;4.85;3.40;;;;;;;;;;5051062;28;20899;-66
2021/03/29 02:33:48;;;;;;;4.57;2.90;;;;;;;;;;5051867;28;20545;-67
2021/03/29 02:36:16;;;;;;;4.82;3.33;;;;;;;;;;5051483;28;20463;-66
2021/03/29 02:38:42;;;;;;;4.90;3.40;;;;;;;;;;5051522;28;20401;-67
2021/03/29 02:41:08;;;;;;;4.47;3.10;;;;;;;;;;5033732;28;20448;-67
2021/03/29 02:43:35;;;;;;;4.38;3.78;;;;;;;;;;5045200;28;20397;-66
2021/03/29 02:46:03;;;;;;;4.40;3.35;;;;;;;;;;5033795;28;20752;-67
2021/03/29 02:48:33;;;;;;;5.00;3.38;;;11.70;92.00;;;;;;5050419;28;20409;-66
2021/03/29 02:51:02;;;;;;;4.38;3.10;;;11.40;90.60;;;;;;5051819;28;20484;-67
2021/03/29 02:53:31;;;;;;;3.40;2.90;;;11.40;90.70;;;;;;5051325;28;20385;-67
2021/03/29 02:56:00;;;;;;;3.88;3.10;;;11.30;90.90;;;;;;5033450;28;20464;-67
2021/03/29 02:58:29;;;;;;;4.72;3.10;;;11.20;90.90;;;;;;5051035;28;20389;-66
2021/03/29 03:00:56;;;;;;;4.80;3.10;;;;;;;;;;5051619;28;20512;-69
2021/03/29 03:03:22;;;;;;;3.42;2.80;;;;;;;;;;5051094;28;20508;-68
2021/03/29 03:05:50;;;;;;;3.97;3.00;;;;;;;;;;5051584;28;20397;-68
2021/03/29 03:08:17;;;;;;;4.53;3.13;;;;;;;;;;5033428;28;20411;-68
2021/03/29 03:10:44;;;;;;;5.95;3.42;;;;;;;;;;5046688;28;20758;-68
2021/03/29 03:13:11;;;;;;;4.25;3.50;;;;;;;;;;5040201;28;20477;-68
2021/03/29 03:15:38;;;;;;;4.57;3.28;;;;;;;;;;5048420;28;20487;-69
2021/03/29 03:18:05;;;;;;;3.70;2.97;;;;;;;;;;5051816;28;20393;-68
2021/03/29 03:20:32;;;;;;;4.45;3.45;;;;;;;;;;5051163;28;20424;-68
2021/03/29 03:22:59;;;;;;;3.57;3.13;;;;;;;;;;5051397;28;20451;-68
2021/03/29 03:25:26;;;;;;;5.22;3.35;;;;;;;;;;5051449;28;20397;-68
2021/03/29 03:27:54;;;;;;;4.22;3.17;;;;;;;;;;5033176;28;20851;-68
2021/03/29 03:30:22;;;;;;;3.35;2.70;;;;;;;;;;5050051;28;20463;-68
2021/03/29 03:32:48;;;;;;;4.93;3.00;;;;;;;;;;5041998;28;20393;-68
2021/03/29 03:35:16;;;;;;;4.80;2.92;;;;;;;;;;5054697;28;20424;-68
2021/03/29 03:37:44;;;;;;;4.88;3.72;;;;;;;;;;5054934;28;20419;-68
2021/03/29 03:40:12;;;;;;;5.38;4.38;;;11.20;90.50;;;;;;5054738;28;20397;-68
2021/03/29 03:42:39;;;;;;;5.05;4.03;;;11.30;91.20;;;;;;5045275;28;20408;-68
2021/03/29 03:45:08;;;;;;;5.30;3.75;;;11.20;91.70;;;;;;5052776;28;20389;-69
2021/03/29 03:47:37;;;;;;;6.05;3.90;;;11.10;91.60;;;;;;5039677;28;20392;-68
2021/03/29 03:50:05;;;;;;;4.80;3.40;;;11.00;90.80;;;;;;5044435;28;20389;-68
2021/03/29 03:52:31;;;;;;;4.45;3.00;;;;;;;;;;5055074;28;20796;-68
2021/03/29 03:54:57;;;;;;;3.38;2.53;;;;;;;;;;5053406;28;20441;-69
2021/03/29 03:57:24;;;;;;;4.60;2.95;;;;;;;;;;5043737;28;20445;-68
2021/03/29 03:59:50;;;;;;;4.53;2.53;;;;;;;;;;5053440;28;20487;-68
2021/03/29 04:02:17;;;;;;;3.45;2.38;;;;;;;;;;5052203;28;20814;-69
2021/03/29 04:04:44;;;;;;;4.47;2.65;;;;;;;;;;5054465;28;20401;-68
2021/03/29 04:07:10;;;;;;;4.85;2.40;;;;;;;;;;5054182;28;20955;-68
2021/03/29 04:09:51;;;;;;;4.63;2.67;;;;;;;;;;5054763;28;20799;-68
2021/03/29 04:12:17;;;;;;;3.65;2.50;;;;;;;;;;5034029;28;20413;-68
2021/03/29 04:14:43;;;;;;;4.72;2.42;;;;;;;;;;5043299;28;20938;-68
2021/03/29 04:17:10;;;;;;;4.78;2.50;;;;;;;;;;5036202;28;20417;-68
2021/03/29 04:19:37;;;;;;;4.97;2.67;;;;;;;;;;5054659;28;20401;-68
2021/03/29 04:22:04;;;;;;;4.78;2.58;;;;;;;;;;5054117;28;20398;-68
2021/03/29 04:24:30;;;;;;;3.95;2.38;;;;;;;;;;5044161;28;20401;-68
2021/03/29 04:26:56;;;;;;;5.15;2.55;;;;;;;;;;5052264;28;20406;-68
2021/03/29 04:29:26;;;;;;;4.32;2.40;;;;;;;;;;5053840;28;20443;-68
2021/03/29 04:31:52;;;;;;;6.50;3.10;;;;;;;;;;5047232;28;20880;-68
2021/03/29 04:34:18;;;;;;;4.72;2.30;;;;;;;;;;5049802;28;20455;-68
2021/03/29 04:36:46;;;;;;;4.47;2.60;;;;;;;;;;5053507;28;20820;-69
2021/03/29 04:39:12;;;;;;;3.72;2.15;;;;;;;;;;5054117;28;20436;-69
2021/03/29 04:41:38;;;;;;;3.08;2.17;;;;;;;;;;5052636;28;20906;-67
2021/03/29 04:44:04;;;;;;;4.00;2.57;;;;;;;;;;5045775;28;20404;-68
2021/03/29 04:46:31;;;;;;;4.65;2.28;;;;;;;;;;5051284;28;20398;-67
2021/03/29 04:48:57;;;;;;;5.28;2.30;;;;;;;;;;5049405;28;20437;-68
2021/03/29 04:51:23;;;;;;;4.30;2.35;;;;;;;;;;5030522;28;20404;-69
2021/03/29 04:53:50;;;;;;;2.88;1.70;;;;;;;;;;5052378;28;20393;-68
2021/03/29 04:56:16;;;;;;;3.42;2.10;;;;;;;;;;5053146;28;20446;-68
2021/03/29 04:58:43;;;;;;;3.67;2.22;;;;;;;;;;5052749;28;20425;-69
2021/03/29 05:01:09;;;;;;;3.67;2.80;;;;;;;;;;5049862;28;20419;-68
2021/03/29 05:03:35;;;;;;;5.53;3.90;;;;;;;;;;5052261;28;20406;-68
2021/03/29 05:06:01;;;;;;;3.75;3.28;;;;;;;;;;5052725;28;20465;-68
2021/03/29 05:08:27;;;;;;;5.28;3.42;;;;;;;;;;5047150;28;20934;-68
2021/03/29 05:10:54;;;;;;;4.00;2.43;;;;;;;;;;5050671;28;20429;-68
2021/03/29 05:13:21;;;;;;;4.25;2.00;;;;;;;;;;5017160;28;20747;-68
2021/03/29 05:15:47;;;;;;;2.83;1.60;;;;;;;;;;5034956;28;20417;-69
2021/03/29 05:18:13;;;;;;;4.25;2.00;;;;;;;;;;5033282;28;20439;-68
2021/03/29 05:20:39;;;;;;;3.67;1.80;;;;;;;;;;5052335;28;20877;-68
2021/03/29 05:23:05;;;;;;;3.50;1.73;;;;;;;;;;5052293;28;20395;-68
2021/03/29 05:25:32;;;;;;;3.25;1.73;;;;;;;;;;5053129;28;20425;-68
2021/03/29 05:27:59;;;;;;;4.45;1.65;;;;;;;;;;5049450;28;20884;-68
2021/03/29 05:30:25;;;;;;;2.67;1.73;;;;;;;;;;5052917;28;20876;-68
2021/03/29 05:32:51;;;;;;;3.90;1.45;;;;;;;;;;5052580;28;20400;-68
2021/03/29 05:35:18;;;;;;;3.20;1.50;;;;;;;;;;5048464;28;20397;-68
2021/03/29 05:37:44;;;;;;;3.08;1.70;;;;;;;;;;5045491;28;20451;-68
2021/03/29 05:40:16;;;;;;;2.55;1.70;;;;;;;;;;5052662;28;20488;-69
2021/03/29 05:42:42;;;;;;;4.07;1.90;;;;;;;;;;5051328;28;20397;-68
2021/03/29 05:45:10;;;;;;;3.40;1.77;;;;;;;;;;5048391;28;20761;-69
2021/03/29 05:47:37;;;;;;;3.60;1.73;;;;;;;;;;5046687;28;20557;-68
2021/03/29 05:50:05;;;;;;;3.78;1.85;;;;;;;;;;5046795;28;20789;-68
2021/03/29 05:52:32;;;;;;;3.65;1.50;;;;;;;;;;5051364;28;20429;-68
2021/03/29 05:54:58;;;;;;;3.67;1.80;;;;;;;;;;5051971;28;20423;-69
2021/03/29 05:57:24;;;;;;;5.15;1.77;;;;;;;;;;5050372;28;20480;-69
2021/03/29 05:59:51;;;;;;;3.70;1.42;;;;;;;;;;5047658;28;20475;-68
2021/03/29 06:02:31;;;;;;;4.03;1.50;;;;;;;;;;5051930;28;21014;-68
2021/03/29 06:04:58;;;;;;;3.88;1.75;;;;;;;;;;5048313;28;20904;-68
2021/03/29 06:07:25;;;;;;;3.35;1.50;;;;;;;;;;5051819;28;20398;-68
2021/03/29 06:09:53;;;;;;;5.97;1.90;;;;;;;;;;5052138;28;20397;-68
2021/03/29 06:12:20;;;;;;;4.07;1.88;;;;;;;;;;5052176;28;20433;-68
2021/03/29 06:14:47;;;;;;;3.53;1.70;;;;;;;;;;5052022;28;20484;-68
2021/03/29 06:17:13;;;;;;;4.90;1.70;;;;;;;;;;5051750;28;20414;-69
2021/03/29 06:19:45;;;;;;;3.58;1.60;;;;;;;;;;5052060;28;20421;-68
2021/03/29 06:22:16;;;;;;;4.45;1.88;;;;;;;;;;5051947;28;20397;-68
2021/03/29 06:24:52;;;;;;;3.20;1.70;;;;;;;;;;5026117;28;20936;-68
2021/03/29 06:27:18;;;;;;;3.08;1.50;;;;;;;;;;5052127;28;20749;-69
2021/03/29 06:29:44;;;;;;;4.72;2.03;;;;;;;;;;5051713;28;20406;-68
2021/03/29 06:32:11;;;;;;;2.67;1.70;;;;;;;;;;5051685;28;20459;-68
2021/03/29 06:34:37;;;;;;;3.60;1.67;;;;;;;;;;5033814;28;20476;-69
2021/03/29 06:37:07;;;;;;;3.13;1.77;;;;;;;;;;5041289;28;20498;-68
2021/03/29 06:39:35;;;;;;;3.63;1.40;;;;;;;;;;5042203;28;20397;-69
2021/03/29 06:42:02;;;;;;;3.03;1.80;;;;;;;;;;5051506;28;20397;-69
2021/03/29 06:44:30;;;;;;;3.70;1.60;;;;;;;;;;5051597;28;20428;-70
2021/03/29 06:47:07;;;;;;;3.38;1.55;;;10.80;90.80;;;;;;5044756;28;20471;-70
2021/03/29 06:49:37;;;;;;;4.55;1.30;;;;;;;;;;5045233;28;20817;-66
2021/03/29 06:52:19;;;;;;;2.88;1.60;;;;;;;;;;5051437;28;20393;-69
2021/03/29 06:54:45;;;;;;;5.13;1.43;;;;;;;;;;5048697;28;20404;-69
2021/03/29 06:57:11;;;;;;;3.20;1.20;;;;;;;;;;5049928;28;20500;-69
2021/03/29 06:59:37;;;;;;;3.90;1.53;;;;;;;;;;5051603;28;20489;-69
2021/03/29 07:02:07;;;;;;;4.50;1.35;;;;;;;;;;5050053;28;20405;-69
2021/03/29 07:04:36;;;;;;;5.13;1.50;;;;;;;;;;5051410;28;20443;-69
2021/03/29 07:07:03;;;;;;;5.40;1.30;;;;;;;;;;5052331;28;20471;-69
2021/03/29 07:09:36;;;;;;;5.40;1.40;;;;;;;;;;5049172;28;20393;-69
2021/03/29 07:12:03;;;;;;;4.57;1.60;;;;;;;;;;5055533;28;20405;-67
2021/03/29 07:14:30;;;;;;;5.38;1.58;;;;;;;;;;5055678;28;20427;-67
2021/03/29 07:16:56;;;;;;;2.93;1.37;;;;;;;;;;5055722;28;20420;-67
2021/03/29 07:19:23;;;;;;;2.05;1.23;;;;;;;;;;5037396;28;20795;-67
2021/03/29 07:21:49;;;;;;;3.47;1.40;;;;;;;;;;5037387;28;20471;-67
2021/03/29 07:24:15;;;;;;;2.80;1.20;;;;;;;;;;5055374;28;20484;-67
2021/03/29 07:26:44;;;;;;;4.90;1.30;;;;;;;;;;5054835;28;20425;-67
2021/03/29 07:29:17;;;;;;;1.77;1.10;;;;;;;;;;5053932;28;20904;-67
2021/03/29 07:31:44;;;;;;;3.87;1.50;;;;;;;;;;5049650;28;20937;-67
2021/03/29 07:34:10;;;;;;;3.17;1.25;;;;;;;;;;5049682;28;20485;-67
2021/03/29 07:36:44;;;;;;;4.05;1.40;;;;;;;;;;5054827;28;20417;-67
2021/03/29 07:39:11;;;;;;;3.75;1.48;;;;;;;;;;5043051;28;20492;-68
2021/03/29 07:41:38;;;;;;;3.15;1.50;;;;;;;;;;5053242;28;20493;-67
2021/03/29 07:44:12;;;;;;;5.27;1.80;;;;;;;;;;5046996;28;20393;-67
2021/03/29 07:46:39;;;;;;;3.88;1.30;;;;;;;;;;5043442;28;20467;-67
2021/03/29 07:49:45;;;;;;;3.25;1.65;;;15.00;56.80;;;;;;5054876;28;20404;-67
2021/03/29 07:52:32;;;;;;;2.20;1.27;;;15.10;57.40;;;;;;5033981;28;20806;-67
2021/03/29 07:54:59;;;;;;;3.17;1.33;;;;;;;;;;5052586;28;20390;-67
2021/03/29 07:57:44;;;;;;;3.78;1.20;;;;;;;;;;5052919;28;20504;-67
2021/03/29 08:00:11;;;;;;;3.72;1.38;;;;;;;;;;5036458;28;20390;-67
2021/03/29 08:02:38;;;;;;;2.63;1.27;;;;;;;;;;5045193;28;20493;-67
2021/03/29 08:05:05;;;;;;;3.50;1.23;;;;;;;;;;5054580;28;20424;-68
2021/03/29 08:07:35;;;;;;;3.17;1.30;;;;;;;;;;5054208;28;20392;-68
2021/03/29 08:10:01;;;;;;;2.60;1.38;;;;;;;;;;5053083;28;20803;-68
2021/03/29 08:12:27;;;;;;;3.65;1.40;;;;;;;;;;5054329;28;20443;-67
2021/03/29 08:14:54;;;;;;;2.65;1.25;;;;;;;;;;5036583;28;20398;-67
2021/03/29 08:17:44;;;;;;;3.17;1.30;;;;;;;;;;5040036;28;20414;-67
2021/03/29 08:20:15;;;;;;;2.65;1.42;;;;;;;;;;5053468;28;20859;-67
2021/03/29 08:22:41;;;;;;;2.65;1.30;;;;;;;;;;5036184;28;20412;-67
2021/03/29 08:25:26;;;;;;;2.85;1.65;;;;;;;;;;5050322;28;20401;-67
2021/03/29 08:27:54;;;;;;;2.72;1.30;;;;;;;;;;5034700;28;20402;-67
2021/03/29 08:30:21;;;;;;;2.70;1.20;;;;;;;;;;5053812;28;20726;-68
2021/03/29 08:32:48;;;;;;;2.03;1.20;;;;;;;;;;5025980;28;20398;-67
2021/03/29 08:35:18;;;;;;;3.33;1.58;;;15.20;57.50;;;;;;5054235;28;20398;-67
2021/03/29 08:37:45;;;;;;;2.17;1.35;;;17.40;52.00;;;;;;5053498;28;20492;-67
2021/03/29 08:40:13;;;;;;;1.85;1.27;;;17.40;51.90;;;;;;5036256;28;20463;-68
2021/03/29 08:42:41;;;;;;;2.70;1.40;;;17.50;53.00;;;;;;5035487;28;20904;-67
2021/03/29 08:45:08;;;;;;;4.03;1.38;;;;;;;;;;5053722;28;20480;-68
2021/03/29 08:47:36;;;;;;;3.38;1.50;;;;;;;;;;5052428;28;20488;-69
2021/03/29 08:50:05;;;;;;;3.67;1.30;;;;;;;;;;5053091;28;20872;-68
2021/03/29 08:52:39;;;;;;;2.47;1.55;;;;;;;;;;5053355;28;20406;-68
2021/03/29 08:55:05;;;;;;;5.30;1.73;;;;;;;;;;5053138;28;20504;-68
2021/03/29 08:57:32;;;;;;;3.60;1.87;;;;;;;;;;5053371;28;20417;-68
2021/03/29 08:59:59;;;;;;;2.28;1.60;;;;;;;;;;5052861;28;20403;-68
2021/03/29 09:02:26;;;;;;;3.83;2.10;;;17.70;51.90;;;;;;5035377;28;20424;-68
2021/03/29 09:04:54;;;;;;;3.92;2.25;;;;;;;;;;5052741;28;20389;-68
2021/03/29 09:07:27;;;;;;;3.80;2.40;;;;;;;;;;5053165;28;20393;-68
2021/03/29 09:09:54;;;;;;;3.05;2.35;;;;;;;;;;5053231;28;20455;-68
2021/03/29 09:12:24;;;;;;;4.90;2.40;;;;;;;;;;5052926;28;20811;-68
2021/03/29 09:14:50;;;;;;;4.90;2.60;;;;;;;;;;5053390;28;20408;-68
2021/03/29 09:17:23;;;;;;;6.50;2.65;;;;;;;;;;5052853;28;20417;-68
2021/03/29 09:19:50;;;;;;;3.10;2.80;;;;;;;;;;5051871;28;20401;-68
2021/03/29 09:22:31;;;;;;;4.25;3.15;;;18.60;57.30;;;;;;5052889;28;20409;-69
2021/03/29 09:24:57;;;;;;;6.70;3.00;;;;;;;;;;5052752;28;20843;-67
2021/03/29 09:27:30;;;;;;;5.07;2.97;;;;;;;;;;5052828;28;20430;-67
2021/03/29 09:29:57;;;;;;;5.57;3.00;;;;;;;;;;5052881;28;20397;-67
2021/03/29 09:32:24;;;;;;;4.38;2.90;;;;;;;;;;5053101;28;20484;-69
2021/03/29 09:34:51;;;;;;;3.85;3.47;;;;;;;;;;5048622;28;20876;-67
2021/03/29 09:37:18;;;;;;;4.70;3.30;;;;;;;;;;5034937;28;20463;-67
2021/03/29 09:39:45;;;;;;;5.93;3.35;;;;;;;;;;5052785;28;20460;-68
2021/03/29 09:42:15;;;;;;;5.60;3.30;;;;;;;;;;5037492;28;20414;-69
2021/03/29 09:44:42;;;;;;;3.80;3.30;;;;;;;;;;5049949;28;20468;-67
2021/03/29 09:47:08;;;;;;;5.00;3.20;;;;;;;;;;5052413;28;20397;-69
2021/03/29 09:49:48;;;;;;;5.95;3.75;;;;;;;;;;5034545;28;20413;-67
2021/03/29 09:52:14;;;;;;;6.05;3.97;;;;;;;;;;5047604;28;20414;-67
2021/03/29 09:54:45;;;;;;;5.50;3.60;;;;;;;;;;5048006;28;20947;-67
2021/03/29 09:57:14;;;;;;;5.78;4.03;;;;;;;;;;5050863;28;20418;-69
2021/03/29 09:59:42;;;;;;;6.63;3.30;;;;;;;;;;5034603;28;20418;-66
2021/03/29 10:02:15;;;;;;;4.55;3.58;;;;;;;;;;5048696;28;20800;-67
2021/03/29 10:04:42;;;;;;;4.83;3.90;;;;;;;;;;5052440;28;20865;-67
2021/03/29 10:07:12;;;;;;;4.60;3.90;;;;;;;;;;5050653;28;20396;-67
2021/03/29 10:09:39;;;;;;;6.00;3.85;;;;;;;;;;5044977;28;20394;-67
2021/03/29 10:12:06;;;;;;;6.13;4.60;;;;;;;;;;5052045;28;20476;-67
2021/03/29 10:14:34;;;;;;;5.63;4.20;;;;;;;;;;5052724;28;20401;-67
2021/03/29 10:17:00;;;;;;;4.70;4.20;;;;;;;;;;5052068;28;20839;-67
2021/03/29 10:19:31;;;;;;;4.78;3.92;;;;;;;;;;5051942;28;20455;-67
2021/03/29 10:22:02;;;;;;;6.50;4.80;;;;;;;;;;5052166;28;20402;-67
2021/03/29 10:24:28;;;;;;;7.13;4.82;;;;;;;;;;5051536;28;20401;-67
2021/03/29 10:26:55;;;;;;;4.35;3.92;;;;;;;;;;5052111;28;20421;-67
2021/03/29 10:29:35;;;;;;;4.80;4.00;;;;;;;;;;5033916;28;20440;-67
2021/03/29 10:32:06;;;;;;;7.47;4.70;;;19.40;59.70;;;;;;5041866;28;20412;-66
2021/03/29 10:34:34;;;;;;;5.25;4.75;;;20.80;59.80;;;;;;5051321;28;20405;-68
2021/03/29 10:37:01;;;;;;;5.05;4.10;;;;;;;;;;5050277;28;20417;-68
2021/03/29 10:39:27;;;;;;;5.50;4.05;;;;;;;;;;5034273;28;20488;-68
2021/03/29 10:41:53;;;;;;;7.57;4.90;;;;;;;;;;5049911;28;20900;-68
2021/03/29 10:44:19;;;;;;;6.70;4.68;;;;;;;;;;5045021;28;20395;-67
2021/03/29 10:46:45;;;;;;;5.53;4.72;;;;;;;;;;5046564;28;20439;-67
2021/03/29 10:49:13;;;;;;;5.70;4.17;;;;;;;;;;5036582;28;20887;-68
2021/03/29 10:51:39;;;;;;;8.23;4.43;;;;;;;;;;5046272;28;20404;-68
2021/03/29 10:54:05;;;;;;;5.68;4.25;;;;;;;;;;5047366;28;20447;-67
2021/03/29 10:56:32;;;;;;;4.40;3.97;;;;;;;;;;5032685;28;20466;-68
2021/03/29 10:58:58;;;;;;;6.00;4.00;;;;;;;;;;5046109;28;20409;-67
2021/03/29 11:01:24;;;;;;;8.10;4.45;;;;;;;;;;5043868;28;20401;-67
2021/03/29 11:03:50;;;;;;;4.15;3.75;;;;;;;;;;5047590;28;20462;-67
2021/03/29 11:06:17;;;;;;;4.07;3.72;;;;;;;;;;5047314;28;20389;-67
2021/03/29 11:08:44;;;;;;;5.18;4.05;;;;;;;;;;5048879;28;20401;-67
2021/03/29 11:11:10;;;;;;;4.90;3.80;;;;;;;;;;5049924;28;20393;-68
2021/03/29 11:13:36;;;;;;;6.25;3.50;;;;;;;;;;5047787;28;20405;-68
2021/03/29 11:16:06;;;;;;;5.00;3.72;;;;;;;;;;5046787;28;20888;-67
2021/03/29 11:18:32;;;;;;;6.43;3.83;;;;;;;;;;5047214;28;20398;-68
2021/03/29 11:20:58;;;;;;;5.85;3.65;;;20.70;61.10;;;;;;5030503;28;20397;-67
2021/03/29 11:23:26;;;;;;;7.10;3.70;;;21.30;58.60;;;;;;5049316;28;20975;-68
2021/03/29 11:25:53;;;;;;;5.72;4.45;;;21.10;58.80;;;;;;5045928;28;20545;-68
2021/03/29 11:28:19;;;;;;;5.53;3.97;;;;;;;;;;5049589;28;20389;-68
2021/03/29 11:30:45;;;;;;;6.13;4.28;;;;;;;;;;5037361;28;20449;-70
2021/03/29 11:33:11;;;;;;;4.30;3.83;;;;;;;;;;5048481;28;20463;-68
2021/03/29 11:35:38;;;;;;;7.35;4.47;;;;;;;;;;5031980;28;20405;-67
2021/03/29 11:38:04;;;;;;;6.85;4.40;;;;;;;;;;5047868;28;20417;-68
2021/03/29 11:40:31;;;;;;;6.80;4.30;;;;;;;;;;5048002;28;20397;-68
2021/03/29 11:42:57;;;;;;;6.33;4.33;;;;;;;;;;5046635;28;20409;-68
2021/03/29 11:45:23;;;;;;;6.43;4.30;;;;;;;;;;5046613;28;20756;-68
2021/03/29 11:47:49;;;;;;;6.10;4.30;;;20.90;58.90;;;;;;5045563;28;20391;-68
2021/03/29 11:50:16;;;;;;;6.45;4.50;;;21.80;57.30;;;;;;5046712;28;20391;-68
2021/03/29 11:52:42;;;;;;;6.78;4.38;;;21.30;59.70;;;;;;5048348;28;20454;-68
2021/03/29 11:55:09;;;;;;;5.03;4.38;;;21.60;58.20;;;;;;5051974;28;20907;-68
2021/03/29 11:57:38;;;;;;;5.43;4.40;;;21.80;60.20;;;;;;5050604;28;20502;-68
2021/03/29 12:00:07;;;;;;;8.55;4.57;;;21.50;58.80;;;;;;5051332;28;20470;-68
2021/03/29 12:02:41;;;;;;;12.35;5.10;;;21.30;58.30;;;;;;5051395;28;20493;-68
2021/03/29 12:05:22;;;;;;;5.45;4.18;;;21.50;62.40;;;;;;5047529;28;20440;-68
2021/03/29 12:08:01;;;;;;;6.15;4.38;;;21.80;59.80;;;;;;5047142;28;20385;-68
2021/03/29 12:13:13;;;;;;;7.47;5.05;;;;;;;;;;5054470;28;20393;-68
2021/03/29 12:15:41;;;;;;;5.80;4.63;;;22.20;57.50;;;;;;5022206;28;20418;-68
2021/03/29 12:18:10;;;;;;;7.35;4.70;;;21.30;58.40;;;;;;5036250;28;20409;-70
2021/03/29 12:20:36;;;;;;;6.15;4.65;;;21.60;61.90;;;;;;5053979;28;20872;-68
2021/03/29 12:23:03;;;;;;;6.25;4.53;;;21.70;59.60;;;;;;5049904;28;20482;-67
2021/03/29 12:25:30;;;;;;;6.55;4.72;;;21.80;59.40;;;;;;5053981;28;20436;-68
2021/03/29 12:27:57;;;;;;;5.72;4.53;;;21.70;58.30;;;;;;5052970;28;20419;-68
2021/03/29 12:30:25;;;;;;;6.22;4.55;;;21.90;58.70;;;;;;5048962;28;20400;-67
2021/03/29 12:32:51;;;;;;;7.40;4.55;;;22.20;57.80;;;;;;5045255;28;20923;-68
2021/03/29 12:35:20;;;;;;;6.47;4.30;;;;;;;;;;5050937;28;20394;-68
2021/03/29 12:37:47;;;;;;;7.38;4.93;;;;;;;;;;5032141;28;20506;-68
2021/03/29 12:40:18;;;;;;;4.38;3.97;;;;;;;;;;5052208;28;20880;-68
2021/03/29 12:45:25;;;;;;;7.47;4.57;;;;;;;;;;5050061;28;20404;-68
2021/03/29 12:47:52;;;;;;;8.40;5.85;;;;;;;;;;5040489;28;20737;-68
2021/03/29 12:50:19;;;;;;;6.30;5.10;;;;;;;;;;5053579;28;20428;-68
2021/03/29 12:52:47;;;;;;;5.63;5.03;;;;;;;;;;5053438;28;20789;-68
2021/03/29 12:55:14;;;;;;;5.07;4.30;;;;;;;;;;5053501;28;20415;-68
2021/03/29 12:57:40;;;;;;;8.27;5.22;;;;;;;;;;5053419;28;20457;-68
2021/03/29 13:00:08;;;;;;;8.60;5.37;;;;;;;;;;5053513;28;20393;-68
2021/03/29 13:02:36;;;;;;;5.50;4.80;;;;;;;;;;5047864;28;20420;-68
2021/03/29 13:05:03;;;;;;;6.75;4.60;;;22.80;57.60;;;;;;5053188;28;20432;-67
2021/03/29 13:07:39;;;;;;;9.90;4.28;;;;;;;;;;5053192;28;20426;-68
2021/03/29 13:12:51;;;;;;;5.70;4.93;;;;;;;;;;5033614;28;20438;-68
2021/03/29 13:15:17;;;;;;;6.93;4.83;;;;;;;;;;5046577;28;20416;-68
2021/03/29 13:17:44;;;;;;;6.43;5.15;;;;;;;;;;5020999;28;20773;-68
2021/03/29 13:20:11;;;;;;;8.00;4.82;;;;;;;;;;5051018;28;20397;-68
2021/03/29 13:22:38;;;;;;;7.15;5.30;;;;;;;;;;5046495;28;20404;-68
2021/03/29 13:25:05;;;;;;;7.55;6.30;;;;;;;;;;5052898;28;20431;-68
2021/03/29 13:27:31;;;;;;;8.27;5.43;;;;;;;;;;5053113;28;20393;-68
2021/03/29 13:30:00;;;;;;;8.45;5.80;;;;;;;;;;5043392;28;20761;-68
2021/03/29 13:32:26;;;;;;;7.90;5.30;;;23.30;55.90;;;;;;5052773;28;20438;-68
2021/03/29 13:34:53;;;;;;;7.53;5.43;;;23.60;55.20;;;;;;5052801;28;20476;-67
2021/03/29 13:37:19;;;;;;;5.97;4.38;;;23.40;54.50;;;;;;5034785;28;20424;-68
2021/03/29 13:39:45;;;;;;;7.53;4.95;;;23.70;56.20;;;;;;5052488;28;20490;-68
2021/03/29 13:42:11;;;;;;;6.23;4.60;;;23.50;55.70;;;;;;5052893;28;20393;-68
2021/03/29 13:44:37;;;;;;;6.28;4.97;;;23.40;55.00;;;;;;5052824;28;20966;-68
2021/03/29 13:47:03;;;;;;;6.55;5.07;;;23.70;55.50;;;;;;5052514;28;20393;-68
2021/03/29 13:49:31;;;;;;;5.97;4.93;;;23.60;55.40;;;;;;5052887;28;20390;-68
2021/03/29 13:52:00;;;;;;;6.35;5.18;;;23.60;56.70;;;;;;5052268;28;20404;-68
2021/03/29 13:54:27;;;;;;;5.75;4.88;;;23.50;55.00;;;;;;5042415;28;20426;-69
2021/03/29 13:56:53;;;;;;;7.17;4.90;;;23.20;55.70;;;;;;5050576;28;20413;-69
2021/03/29 13:59:19;;;;;;;5.27;4.53;;;23.40;55.70;;;;;;5044089;28;20404;-69
2021/03/29 14:01:46;;;;;;;6.97;5.03;;;24.50;52.40;;;;;;5052332;28;20493;-69
2021/03/29 14:04:13;;;;;;;6.88;5.03;;;24.50;53.70;;;;;;5042457;28;20408;-69
2021/03/29 14:06:39;;;;;;;5.07;3.90;;;24.50;53.70;;;;;;5052357;28;20381;-69
2021/03/29 14:09:07;;;;;;;6.80;4.10;;;25.10;51.30;;;;;;5051983;28;20399;-69
2021/03/29 14:11:33;;;;;;;4.93;3.75;;;25.10;51.80;;;;;;5052364;28;20394;-69
2021/03/29 14:14:00;;;;;;;7.18;4.85;;;24.90;51.50;;;;;;5052142;28;20907;-69
2021/03/29 14:16:26;;;;;;;7.72;4.60;;;24.70;52.00;;;;;;5050254;28;20947;-69
2021/03/29 14:18:52;;;;;;;7.80;4.30;;;25.00;51.30;;;;;;5051853;28;20435;-69
2021/03/29 14:21:22;;;;;;;4.18;3.70;;;25.00;52.00;;;;;;5052203;28;20817;-69
2021/03/29 14:23:48;;;;;;;5.00;4.10;;;25.40;50.00;;;;;;5052089;28;20439;-69
2021/03/29 14:26:15;;;;;;;4.82;3.70;;;25.60;49.50;;;;;;5051789;28;20393;-69